sensor_id;sensor_type;location;lat;lon;timestamp;P1;durP1;ratioP1;P2;durP2;ratioP2
22861;SDS011;11598;50.652;6.172;2023-07-02T00:06:15;18.10;;;8.02;;
22861;SDS011;11598;50.652;6.172;2023-07-02T00:16:17;17.83;;;8.57;;
22861;SDS011;11598;50.652;6.172;2023-07-02T00:26:17;21.70;;;10.00;;
22861;SDS011;11598;50.652;6.172;2023-07-02T00:36:18;17.33;;;9.00;;
22861;SDS011;11598;50.652;6.172;2023-07-02T00:46:18;25.48;;;9.70;;
22861;SDS011;11598;50.652;6.172;2023-07-02T00:56:20;20.30;;;10.00;;
22861;SDS011;11598;50.652;6.172;2023-07-02T01:06:24;20.38;;;9.95;;
22861;SDS011;11598;50.652;6.172;2023-07-02T01:16:30;21.38;;;10.25;;
22861;SDS011;11598;50.652;6.172;2023-07-02T01:26:32;19.23;;;9.60;;
22861;SDS011;11598;50.652;6.172;2023-07-02T01:36:33;22.90;;;11.18;;
22861;SDS011;11598;50.652;6.172;2023-07-02T01:46:34;24.90;;;11.82;;
22861;SDS011;11598;50.652;6.172;2023-07-02T01:56:34;26.40;;;11.95;;
22861;SDS011;11598;50.652;6.172;2023-07-02T02:06:35;27.77;;;12.00;;
22861;SDS011;11598;50.652;6.172;2023-07-02T02:16:36;26.33;;;12.32;;
22861;SDS011;11598;50.652;6.172;2023-07-02T02:26:37;26.73;;;13.05;;
22861;SDS011;11598;50.652;6.172;2023-07-02T02:36:37;27.42;;;15.00;;
22861;SDS011;11598;50.652;6.172;2023-07-02T02:46:38;31.25;;;13.98;;
22861;SDS011;11598;50.652;6.172;2023-07-02T02:56:38;28.52;;;15.00;;
22861;SDS011;11598;50.652;6.172;2023-07-02T03:06:39;25.92;;;14.43;;
22861;SDS011;11598;50.652;6.172;2023-07-02T03:16:40;36.42;;;15.05;;
22861;SDS011;11598;50.652;6.172;2023-07-02T03:26:44;33.35;;;16.00;;
22861;SDS011;11598;50.652;6.172;2023-07-02T03:36:45;30.57;;;15.37;;
22861;SDS011;11598;50.652;6.172;2023-07-02T03:46:45;35.50;;;16.00;;
22861;SDS011;11598;50.652;6.172;2023-07-02T03:56:45;35.42;;;16.65;;
22861;SDS011;11598;50.652;6.172;2023-07-02T04:06:46;31.52;;;15.27;;
22861;SDS011;11598;50.652;6.172;2023-07-02T04:16:46;39.65;;;19.23;;
22861;SDS011;11598;50.652;6.172;2023-07-02T04:26:46;41.42;;;19.67;;
22861;SDS011;11598;50.652;6.172;2023-07-02T04:36:46;37.85;;;18.33;;
22861;SDS011;11598;50.652;6.172;2023-07-02T04:46:47;41.75;;;19.35;;
22861;SDS011;11598;50.652;6.172;2023-07-02T04:56:47;41.00;;;19.58;;
22861;SDS011;11598;50.652;6.172;2023-07-02T05:06:48;44.00;;;20.20;;
22861;SDS011;11598;50.652;6.172;2023-07-02T05:16:48;35.72;;;18.10;;
22861;SDS011;11598;50.652;6.172;2023-07-02T05:26:49;48.78;;;21.80;;
22861;SDS011;11598;50.652;6.172;2023-07-02T05:36:50;52.80;;;21.95;;
22861;SDS011;11598;50.652;6.172;2023-07-02T05:46:51;44.90;;;21.35;;
22861;SDS011;11598;50.652;6.172;2023-07-02T05:56:51;47.47;;;22.80;;
22861;SDS011;11598;50.652;6.172;2023-07-02T06:06:51;47.13;;;22.88;;
22861;SDS011;11598;50.652;6.172;2023-07-02T06:16:52;42.63;;;21.90;;
22861;SDS011;11598;50.652;6.172;2023-07-02T06:26:52;47.40;;;21.98;;
22861;SDS011;11598;50.652;6.172;2023-07-02T06:36:53;36.10;;;20.63;;
22861;SDS011;11598;50.652;6.172;2023-07-02T06:46:53;50.78;;;21.30;;
22861;SDS011;11598;50.652;6.172;2023-07-02T06:56:53;39.80;;;18.92;;
22861;SDS011;11598;50.652;6.172;2023-07-02T07:06:54;41.38;;;20.88;;
22861;SDS011;11598;50.652;6.172;2023-07-02T07:16:55;41.38;;;20.70;;
22861;SDS011;11598;50.652;6.172;2023-07-02T07:26:55;36.60;;;17.73;;
22861;SDS011;11598;50.652;6.172;2023-07-02T07:36:56;36.58;;;17.77;;
22861;SDS011;11598;50.652;6.172;2023-07-02T07:46:56;34.22;;;16.58;;
22861;SDS011;11598;50.652;6.172;2023-07-02T07:56:56;32.70;;;16.38;;
22861;SDS011;11598;50.652;6.172;2023-07-02T08:06:57;36.15;;;15.32;;
22861;SDS011;11598;50.652;6.172;2023-07-02T08:16:57;31.80;;;15.90;;
22861;SDS011;11598;50.652;6.172;2023-07-02T08:26:57;32.67;;;15.65;;
22861;SDS011;11598;50.652;6.172;2023-07-02T08:36:58;32.50;;;16.50;;
22861;SDS011;11598;50.652;6.172;2023-07-02T08:46:58;30.42;;;15.77;;
22861;SDS011;11598;50.652;6.172;2023-07-02T08:56:59;31.55;;;14.82;;
22861;SDS011;11598;50.652;6.172;2023-07-02T09:07:09;32.05;;;15.68;;
22861;SDS011;11598;50.652;6.172;2023-07-02T09:17:10;32.50;;;15.50;;
22861;SDS011;11598;50.652;6.172;2023-07-02T09:27:10;35.22;;;16.38;;
22861;SDS011;11598;50.652;6.172;2023-07-02T09:37:11;31.65;;;14.95;;
22861;SDS011;11598;50.652;6.172;2023-07-02T09:47:12;25.58;;;13.07;;
22861;SDS011;11598;50.652;6.172;2023-07-02T09:57:14;26.40;;;13.05;;
22861;SDS011;11598;50.652;6.172;2023-07-02T10:07:26;27.50;;;12.68;;
22861;SDS011;11598;50.652;6.172;2023-07-02T10:17:32;28.15;;;13.43;;
22861;SDS011;11598;50.652;6.172;2023-07-02T10:27:40;28.63;;;13.93;;
22861;SDS011;11598;50.652;6.172;2023-07-02T10:37:42;27.52;;;13.65;;
22861;SDS011;11598;50.652;6.172;2023-07-02T10:47:42;25.40;;;13.17;;
22861;SDS011;11598;50.652;6.172;2023-07-02T10:57:43;32.22;;;14.02;;
22861;SDS011;11598;50.652;6.172;2023-07-02T11:07:43;29.38;;;12.73;;
22861;SDS011;11598;50.652;6.172;2023-07-02T11:17:44;29.35;;;12.25;;
22861;SDS011;11598;50.652;6.172;2023-07-02T11:27:44;21.58;;;11.35;;
22861;SDS011;11598;50.652;6.172;2023-07-02T11:37:45;21.63;;;10.55;;
22861;SDS011;11598;50.652;6.172;2023-07-02T11:47:46;22.65;;;10.88;;
22861;SDS011;11598;50.652;6.172;2023-07-02T11:57:46;25.60;;;11.52;;
22861;SDS011;11598;50.652;6.172;2023-07-02T12:07:49;21.27;;;10.52;;
22861;SDS011;11598;50.652;6.172;2023-07-02T12:17:49;25.52;;;10.85;;
22861;SDS011;11598;50.652;6.172;2023-07-02T12:27:49;20.20;;;10.77;;
22861;SDS011;11598;50.652;6.172;2023-07-02T12:37:50;22.00;;;10.57;;
22861;SDS011;11598;50.652;6.172;2023-07-02T12:47:52;22.42;;;10.52;;
22861;SDS011;11598;50.652;6.172;2023-07-02T12:57:52;21.83;;;10.80;;
22861;SDS011;11598;50.652;6.172;2023-07-02T13:07:53;20.38;;;11.32;;
22861;SDS011;11598;50.652;6.172;2023-07-02T13:17:53;21.42;;;10.40;;
22861;SDS011;11598;50.652;6.172;2023-07-02T13:27:53;19.33;;;9.88;;
22861;SDS011;11598;50.652;6.172;2023-07-02T13:37:54;24.75;;;11.15;;
22861;SDS011;11598;50.652;6.172;2023-07-02T13:47:54;24.17;;;10.35;;
22861;SDS011;11598;50.652;6.172;2023-07-02T13:57:54;20.77;;;9.85;;
22861;SDS011;11598;50.652;6.172;2023-07-02T14:07:56;19.23;;;9.25;;
22861;SDS011;11598;50.652;6.172;2023-07-02T14:17:57;20.42;;;10.05;;
22861;SDS011;11598;50.652;6.172;2023-07-02T14:27:57;17.60;;;9.65;;
22861;SDS011;11598;50.652;6.172;2023-07-02T14:37:58;21.65;;;10.07;;
22861;SDS011;11598;50.652;6.172;2023-07-02T14:47:58;21.10;;;9.32;;
22861;SDS011;11598;50.652;6.172;2023-07-02T14:57:59;21.80;;;9.40;;
22861;SDS011;11598;50.652;6.172;2023-07-02T15:08:00;18.08;;;8.82;;
22861;SDS011;11598;50.652;6.172;2023-07-02T15:18:00;26.67;;;9.00;;
22861;SDS011;11598;50.652;6.172;2023-07-02T15:28:01;20.98;;;9.25;;
22861;SDS011;11598;50.652;6.172;2023-07-02T15:38:01;25.20;;;9.53;;
22861;SDS011;11598;50.652;6.172;2023-07-02T15:48:02;23.52;;;9.63;;
22861;SDS011;11598;50.652;6.172;2023-07-02T15:58:02;21.90;;;9.67;;
22861;SDS011;11598;50.652;6.172;2023-07-02T16:08:03;20.40;;;9.30;;
22861;SDS011;11598;50.652;6.172;2023-07-02T16:18:05;24.25;;;9.68;;
22861;SDS011;11598;50.652;6.172;2023-07-02T16:28:06;19.17;;;9.15;;
22861;SDS011;11598;50.652;6.172;2023-07-02T16:38:07;21.42;;;9.10;;
22861;SDS011;11598;50.652;6.172;2023-07-02T16:48:07;22.10;;;8.65;;
22861;SDS011;11598;50.652;6.172;2023-07-02T16:58:08;18.83;;;8.20;;
22861;SDS011;11598;50.652;6.172;2023-07-02T17:08:08;19.60;;;8.30;;
22861;SDS011;11598;50.652;6.172;2023-07-02T17:18:08;18.85;;;8.18;;
22861;SDS011;11598;50.652;6.172;2023-07-02T17:28:09;20.38;;;7.80;;
22861;SDS011;11598;50.652;6.172;2023-07-02T17:38:09;21.88;;;7.93;;
22861;SDS011;11598;50.652;6.172;2023-07-02T17:48:09;23.30;;;7.97;;
22861;SDS011;11598;50.652;6.172;2023-07-02T17:58:10;16.90;;;7.60;;
22861;SDS011;11598;50.652;6.172;2023-07-02T18:08:10;16.92;;;7.20;;
22861;SDS011;11598;50.652;6.172;2023-07-02T18:18:10;23.58;;;7.40;;
22861;SDS011;11598;50.652;6.172;2023-07-02T18:28:12;17.20;;;7.20;;
22861;SDS011;11598;50.652;6.172;2023-07-02T18:38:14;29.15;;;8.32;;
22861;SDS011;11598;50.652;6.172;2023-07-02T18:48:15;18.83;;;6.90;;
22861;SDS011;11598;50.652;6.172;2023-07-02T18:58:15;18.13;;;6.43;;
22861;SDS011;11598;50.652;6.172;2023-07-02T19:08:16;20.88;;;7.57;;
22861;SDS011;11598;50.652;6.172;2023-07-02T19:18:17;20.08;;;7.13;;
22861;SDS011;11598;50.652;6.172;2023-07-02T19:28:18;26.27;;;8.02;;
22861;SDS011;11598;50.652;6.172;2023-07-02T19:38:18;19.48;;;6.60;;
22861;SDS011;11598;50.652;6.172;2023-07-02T19:48:18;20.15;;;6.75;;
22861;SDS011;11598;50.652;6.172;2023-07-02T19:58:19;17.88;;;6.45;;
22861;SDS011;11598;50.652;6.172;2023-07-02T20:08:20;17.88;;;6.60;;
22861;SDS011;11598;50.652;6.172;2023-07-02T20:18:20;25.55;;;7.03;;
22861;SDS011;11598;50.652;6.172;2023-07-02T20:28:20;16.73;;;5.90;;
22861;SDS011;11598;50.652;6.172;2023-07-02T20:38:20;20.67;;;4.95;;
22861;SDS011;11598;50.652;6.172;2023-07-02T20:48:21;23.15;;;4.55;;
22861;SDS011;11598;50.652;6.172;2023-07-02T20:58:22;14.20;;;3.83;;
22861;SDS011;11598;50.652;6.172;2023-07-02T21:08:23;16.15;;;3.42;;
22861;SDS011;11598;50.652;6.172;2023-07-02T21:18:23;17.88;;;3.60;;
22861;SDS011;11598;50.652;6.172;2023-07-02T21:28:25;12.93;;;3.40;;
22861;SDS011;11598;50.652;6.172;2023-07-02T21:38:26;19.10;;;4.10;;
22861;SDS011;11598;50.652;6.172;2023-07-02T21:48:27;16.05;;;3.47;;
22861;SDS011;11598;50.652;6.172;2023-07-02T21:58:27;15.60;;;3.85;;
22861;SDS011;11598;50.652;6.172;2023-07-02T22:08:27;14.80;;;3.58;;
22861;SDS011;11598;50.652;6.172;2023-07-02T22:18:28;19.50;;;3.95;;
22861;SDS011;11598;50.652;6.172;2023-07-02T22:28:29;11.90;;;3.38;;
22861;SDS011;11598;50.652;6.172;2023-07-02T22:38:29;14.55;;;3.55;;
22861;SDS011;11598;50.652;6.172;2023-07-02T22:48:29;14.57;;;3.47;;
22861;SDS011;11598;50.652;6.172;2023-07-02T22:58:30;19.02;;;4.13;;
22861;SDS011;11598;50.652;6.172;2023-07-02T23:08:30;12.90;;;3.28;;
22861;SDS011;11598;50.652;6.172;2023-07-02T23:18:30;15.80;;;3.80;;
22861;SDS011;11598;50.652;6.172;2023-07-02T23:28:34;16.43;;;3.87;;
22861;SDS011;11598;50.652;6.172;2023-07-02T23:38:36;15.35;;;3.55;;
22861;SDS011;11598;50.652;6.172;2023-07-02T23:48:36;17.50;;;3.50;;
22861;SDS011;11598;50.652;6.172;2023-07-02T23:58:36;16.50;;;3.85;;
